Airfield :







YOU CAN JOIN US ON...

 
LOGIN :

Register | Disclaimer

   EN    FR    IT 

 









Legend :    VFR   Marginal VFR   IFR   Intensive IFR   Very Intensive IFR
Visi :
Ceiling :
>= 8 km
>= 3000ft
5 to 8 km
1000 to 3000 ft
1500m to 5 km
500 to 1000 ft
800 to 1500m
200 to 500 ft
< 800m
< 200 ft
Symbols :   Thunderstorms  Fog  Heavy snow  Heavy precipitations  Wind > 20 kt






- Airport Elevation : 23 ft
- IATA code : STT


TIST - King

CURRENT METAR :
  • 160853Z AUTO 06013G22KT 10SM CLR 26/21 A3001 RMK AO2 SLP164 T02610211 55006

EXPIRED METARs :
  • 160753Z AUTO 07012G20KT 10SM FEW033 FEW085 BKN120 26/19 A3001 RMK AO2 PK WND 07029/0729 SLP162 T02610189
  • 160653Z AUTO 07009KT 10SM FEW034 FEW110 27/22 A3001 RMK AO2 SLP164 T02670217

TAF TIST
Valid from the 16 at 06:00 until the 17 at 06:00 UTC


160520Z 1606/1706 07010KT P6SM VCSH FEW025 SCT040
FM161400 08016G25KT P6SM VCSH FEW025 SCT050



MET'MAP, your aeronautical weather chart ! - Copyright ORBIFLY December 2007 - Disclaimer

ORBIFLY MET'MAP TEAM :

Programming & Development : Alexandra Zaïnal
Concept & original design : Baudouin d'Aumeries
Assistance for programming : Marc-Olivier Méhu
Technical & hardware support : Manuel Goepfert

Contact : metmap@orbifly.com




SOURCES & CREDITS :

   NOAA